createdAt,value
2023-02-14T00:01:23.157Z,17.15
2023-02-14T00:03:50.471Z,23.25
2023-02-14T00:06:18.214Z,19.67
2023-02-14T00:08:45.648Z,16.30
2023-02-14T00:11:14.322Z,21.27
2023-02-14T00:14:02.128Z,17.92
2023-02-14T00:16:30.067Z,18.58
2023-02-14T00:19:03.988Z,22.30
2023-02-14T00:21:33.246Z,16.70
2023-02-14T00:24:00.561Z,23.25
2023-02-14T00:26:28.122Z,19.45
2023-02-14T00:28:55.307Z,17.33
2023-02-14T00:31:24.658Z,17.45
2023-02-14T00:33:52.123Z,20.13
2023-02-14T00:36:20.922Z,12.63
2023-02-14T00:38:50.359Z,15.18
2023-02-14T00:41:21.163Z,17.95
2023-02-14T00:43:49.991Z,18.80
2023-02-14T00:46:19.244Z,18.75
2023-02-14T00:48:46.901Z,21.10
2023-02-14T00:51:15.402Z,13.77
2023-02-14T00:53:44.432Z,16.45
2023-02-14T00:56:13.096Z,16.45
2023-02-14T00:58:40.853Z,19.73
2023-02-14T01:01:09.455Z,16.42
2023-02-14T01:03:37.072Z,20.02
2023-02-14T01:06:05.690Z,15.63
2023-02-14T01:08:33.548Z,20.15
2023-02-14T01:11:16.755Z,21.27
2023-02-14T01:13:45.035Z,20.02
2023-02-14T01:16:17.080Z,17.98
2023-02-14T01:18:45.212Z,21.77
2023-02-14T01:21:15.805Z,17.20
2023-02-14T01:23:44.082Z,20.38
2023-02-14T01:26:12.827Z,21.08
2023-02-14T01:28:40.859Z,16.58
2023-02-14T01:31:13.175Z,18.70
2023-02-14T01:33:42.442Z,18.67
2023-02-14T01:36:21.897Z,26.33
2023-02-14T01:38:53.029Z,22.98
2023-02-14T01:41:21.842Z,19.08
2023-02-14T01:44:15.218Z,22.42
2023-02-14T01:46:44.828Z,21.25
2023-02-14T01:49:15.444Z,20.25
2023-02-14T01:51:51.133Z,21.67
2023-02-14T01:54:23.205Z,18.08
2023-02-14T01:56:56.373Z,14.10
2023-02-14T01:59:27.080Z,21.85
2023-02-14T02:01:55.476Z,20.40
2023-02-14T02:04:28.378Z,19.60
2023-02-14T02:07:02.341Z,20.08
2023-02-14T02:09:53.732Z,18.33
2023-02-14T02:12:24.364Z,18.55
2023-02-14T02:14:55.182Z,16.25
2023-02-14T02:17:51.487Z,23.20
2023-02-14T02:20:37.509Z,17.42
2023-02-14T02:23:38.837Z,18.52
2023-02-14T02:26:33.868Z,15.88
2023-02-14T02:29:28.746Z,17.40
2023-02-14T02:32:07.449Z,19.42
2023-02-14T02:35:05.675Z,17.45
2023-02-14T02:38:09.925Z,19.52
2023-02-14T02:40:40.088Z,16.00
2023-02-14T02:43:43.249Z,16.20
2023-02-14T02:46:49.202Z,18.00
2023-02-14T02:49:39.500Z,16.38
2023-02-14T02:52:45.953Z,19.67
2023-02-14T02:55:25.696Z,17.27
2023-02-14T02:57:55.218Z,17.58
2023-02-14T03:00:24.563Z,22.98
2023-02-14T03:03:15.387Z,20.38
2023-02-14T03:05:43.684Z,19.10
2023-02-14T03:08:11.361Z,14.77
2023-02-14T03:10:39.705Z,21.42
2023-02-14T03:13:16.088Z,18.75
2023-02-14T03:16:15.625Z,18.00
2023-02-14T03:19:03.259Z,17.80
2023-02-14T03:21:55.272Z,21.67
2023-02-14T03:24:36.632Z,18.70
2023-02-14T03:27:15.303Z,19.90
2023-02-14T03:30:00.348Z,17.42
2023-02-14T03:32:39.557Z,20.05
2023-02-14T03:35:22.759Z,20.08
2023-02-14T03:37:57.921Z,25.73
2023-02-14T03:40:28.003Z,17.08
2023-02-14T03:43:06.021Z,14.57
2023-02-14T03:45:39.515Z,19.70
2023-02-14T03:48:11.556Z,15.80
2023-02-14T03:50:42.383Z,15.15
2023-02-14T03:53:12.731Z,18.88
2023-02-14T03:56:08.590Z,26.80
2023-02-14T03:58:41.481Z,25.13
2023-02-14T04:01:18.379Z,30.42
2023-02-14T04:03:46.301Z,23.30
2023-02-14T04:06:14.219Z,23.48
2023-02-14T04:08:41.460Z,23.42
2023-02-14T04:11:09.134Z,15.80
2023-02-14T04:13:37.618Z,23.55
2023-02-14T04:16:05.751Z,22.30
2023-02-14T04:18:52.559Z,20.38
2023-02-14T04:21:20.055Z,24.67
2023-02-14T04:23:47.323Z,23.25
2023-02-14T04:26:14.925Z,30.38
2023-02-14T04:28:42.281Z,24.63
2023-02-14T04:31:11.474Z,38.72
2023-02-14T04:33:39.487Z,29.20
2023-02-14T04:36:07.156Z,26.42
2023-02-14T04:38:34.730Z,25.67
2023-02-14T04:41:02.464Z,25.75
2023-02-14T04:43:30.051Z,29.58
2023-02-14T04:45:57.487Z,32.28
2023-02-14T04:48:24.756Z,27.60
2023-02-14T04:50:54.405Z,34.78
2023-02-14T04:53:22.180Z,23.48
2023-02-14T04:55:50.414Z,32.42
2023-02-14T04:58:18.317Z,34.17
2023-02-14T05:00:46.075Z,29.45
2023-02-14T05:03:13.349Z,35.95
2023-02-14T05:05:40.836Z,34.05
2023-02-14T05:08:08.027Z,28.08
2023-02-14T05:10:35.605Z,32.10
2023-02-14T05:13:02.806Z,31.25
2023-02-14T05:15:30.436Z,27.67
2023-02-14T05:18:01.702Z,42.75
2023-02-14T05:20:29.912Z,33.03
2023-02-14T05:23:03.371Z,32.20
2023-02-14T05:25:31.762Z,31.52
2023-02-14T05:27:59.088Z,32.05
2023-02-14T05:30:28.196Z,36.88
2023-02-14T05:32:56.007Z,39.05
2023-02-14T05:35:24.159Z,44.65
2023-02-14T05:37:51.369Z,31.45
2023-02-14T05:40:19.005Z,38.03
2023-02-14T05:42:46.365Z,29.38
2023-02-14T05:45:15.187Z,36.28
2023-02-14T05:47:42.435Z,32.58
2023-02-14T05:50:10.686Z,30.33
2023-02-14T05:52:38.081Z,32.75
2023-02-14T05:55:06.650Z,30.55
2023-02-14T05:57:34.052Z,35.38
2023-02-14T06:00:01.679Z,36.58
2023-02-14T06:02:29.546Z,38.17
2023-02-14T06:04:57.298Z,33.70
2023-02-14T06:07:24.713Z,38.05
2023-02-14T06:09:52.316Z,33.60
2023-02-14T06:12:19.612Z,38.83
2023-02-14T06:14:47.118Z,35.60
2023-02-14T06:17:14.518Z,34.28
2023-02-14T06:19:43.290Z,36.90
2023-02-14T06:22:10.488Z,44.80
2023-02-14T06:24:38.026Z,36.72
2023-02-14T06:27:05.333Z,47.17
2023-02-14T06:29:32.828Z,47.00
2023-02-14T06:32:05.803Z,50.25
2023-02-14T06:34:34.361Z,54.75
2023-02-14T06:37:01.645Z,50.53
2023-02-14T06:39:29.318Z,44.60
2023-02-14T06:41:56.668Z,45.90
2023-02-14T06:44:24.133Z,50.85
2023-02-14T06:46:51.888Z,50.92
2023-02-14T06:49:19.344Z,40.78
2023-02-14T06:51:47.592Z,43.30
2023-02-14T06:54:15.014Z,36.25
2023-02-14T06:56:42.371Z,43.83
2023-02-14T06:59:09.879Z,36.95
2023-02-14T07:01:37.883Z,43.45
2023-02-14T07:04:05.861Z,41.83
2023-02-14T07:06:33.161Z,30.98
2023-02-14T07:09:00.861Z,43.85
2023-02-14T07:11:28.721Z,43.67
2023-02-14T07:13:56.321Z,45.63
2023-02-14T07:16:23.737Z,29.67
2023-02-14T07:18:51.285Z,30.20
2023-02-14T07:21:18.553Z,31.20
2023-02-14T07:23:47.819Z,42.03
2023-02-14T07:26:18.200Z,44.90
2023-02-14T07:28:48.816Z,29.80
2023-02-14T07:31:18.438Z,43.97
2023-02-14T07:33:46.299Z,38.33
2023-02-14T07:36:13.641Z,38.53
2023-02-14T07:38:41.478Z,42.72
2023-02-14T07:41:08.755Z,33.97
2023-02-14T07:43:36.296Z,43.50
2023-02-14T07:46:03.768Z,42.25
2023-02-14T07:48:33.894Z,40.75
2023-02-14T07:51:04.779Z,44.30
2023-02-14T07:53:32.334Z,38.17
2023-02-14T07:55:59.793Z,39.50
2023-02-14T07:58:27.963Z,37.60
2023-02-14T08:00:55.519Z,35.00
2023-02-14T08:03:23.049Z,29.55
2023-02-14T08:05:57.350Z,34.38
2023-02-14T08:08:27.499Z,35.35
2023-02-14T08:10:54.956Z,42.50
2023-02-14T08:13:22.857Z,31.80
2023-02-14T08:16:07.111Z,30.35
2023-02-14T08:18:42.314Z,36.92
2023-02-14T08:21:11.234Z,29.23
2023-02-14T08:23:38.796Z,30.55
2023-02-14T08:26:07.040Z,36.85
2023-02-14T08:28:35.224Z,26.05
2023-02-14T08:31:04.368Z,32.78
2023-02-14T08:33:33.787Z,27.35
2023-02-14T08:36:01.123Z,29.83
2023-02-14T08:38:29.061Z,33.50
2023-02-14T08:41:03.069Z,31.88
2023-02-14T08:43:34.175Z,29.52
2023-02-14T08:46:02.040Z,34.03
2023-02-14T08:48:30.020Z,30.85
2023-02-14T08:50:57.514Z,28.38
2023-02-14T08:53:25.240Z,35.75
2023-02-14T08:55:52.582Z,39.33
2023-02-14T08:58:20.101Z,35.78
2023-02-14T09:00:47.570Z,34.72
2023-02-14T09:03:15.063Z,35.10
2023-02-14T09:05:43.067Z,38.30
2023-02-14T09:08:10.520Z,37.28
2023-02-14T09:10:37.858Z,39.25
2023-02-14T09:13:05.841Z,37.30
2023-02-14T09:15:33.226Z,30.77
2023-02-14T09:18:00.907Z,30.25
2023-02-14T09:20:28.152Z,33.92
2023-02-14T09:22:57.147Z,29.25
2023-02-14T09:25:24.440Z,32.20
2023-02-14T09:27:52.036Z,45.20
2023-02-14T09:30:19.523Z,32.75
2023-02-14T09:32:47.005Z,30.33
2023-02-14T09:35:14.234Z,38.58
2023-02-14T09:38:00.494Z,33.13
2023-02-14T09:40:27.818Z,47.58
2023-02-14T09:43:10.209Z,40.03
2023-02-14T09:45:38.391Z,35.95
2023-02-14T09:48:19.842Z,33.75
2023-02-14T09:50:54.742Z,36.92
2023-02-14T09:53:32.617Z,42.13
2023-02-14T09:56:12.333Z,31.38
2023-02-14T09:59:09.393Z,25.77
2023-02-14T10:01:42.618Z,35.25
2023-02-14T10:04:18.924Z,24.25
2023-02-14T10:07:09.927Z,29.52
2023-02-14T10:09:46.513Z,35.25
2023-02-14T10:12:31.708Z,32.22
2023-02-14T10:15:02.296Z,36.17
2023-02-14T10:17:40.836Z,37.25
2023-02-14T10:20:25.791Z,28.98
2023-02-14T10:23:23.141Z,38.95
2023-02-14T10:26:06.760Z,37.78
2023-02-14T10:28:51.949Z,27.60
2023-02-14T10:31:44.905Z,29.77
2023-02-14T10:36:44.794Z,32.25
2023-02-14T10:39:55.341Z,27.55
2023-02-14T10:42:50.946Z,30.65
2023-02-14T10:45:49.938Z,32.92
2023-02-14T10:48:32.355Z,29.80
2023-02-14T10:51:11.379Z,27.52
2023-02-14T10:53:47.756Z,30.75
2023-02-14T10:56:20.339Z,36.30
2023-02-14T10:58:50.601Z,26.38
2023-02-14T11:01:19.136Z,32.85
2023-02-14T11:03:58.669Z,28.83
2023-02-14T11:06:26.090Z,30.65
2023-02-14T11:08:55.596Z,31.48
2023-02-14T11:11:26.971Z,48.65
2023-02-14T11:13:54.596Z,24.15
2023-02-14T11:16:36.963Z,27.25
2023-02-14T11:19:20.993Z,57.20
2023-02-14T11:21:50.934Z,29.95
2023-02-14T11:24:34.930Z,29.83
2023-02-14T11:27:04.391Z,27.55
2023-02-14T11:29:45.026Z,29.55
2023-02-14T11:32:22.802Z,36.28
2023-02-14T11:35:00.501Z,37.05
2023-02-14T11:37:43.529Z,38.58
2023-02-14T11:40:27.657Z,34.00
2023-02-14T11:43:12.851Z,36.83
2023-02-14T11:45:44.410Z,24.83
2023-02-14T11:48:37.848Z,27.75
2023-02-14T11:51:15.008Z,29.63
2023-02-14T11:53:51.982Z,28.63
2023-02-14T11:56:21.435Z,28.42
2023-02-14T11:58:59.998Z,26.60
2023-02-14T12:01:36.341Z,35.97
2023-02-14T12:04:17.842Z,24.02
2023-02-14T12:06:45.948Z,28.42
2023-02-14T12:09:23.024Z,26.08
2023-02-14T12:12:00.885Z,27.35
2023-02-14T12:14:33.717Z,25.27
2023-02-14T12:17:31.251Z,27.33
2023-02-14T12:20:04.378Z,31.45
2023-02-14T12:22:37.696Z,23.75
2023-02-14T12:25:33.644Z,31.60
2023-02-14T12:28:07.544Z,27.27
2023-02-14T12:30:35.831Z,19.88
2023-02-14T12:33:05.902Z,30.02
2023-02-14T12:35:36.015Z,43.50
2023-02-14T12:38:19.186Z,27.88
2023-02-14T12:41:30.801Z,34.60
2023-02-14T12:44:04.380Z,36.67
2023-02-14T12:46:37.464Z,27.90
2023-02-14T12:49:28.756Z,30.90
2023-02-14T12:52:11.010Z,29.02
2023-02-14T12:54:56.421Z,34.10
2023-02-14T12:57:30.112Z,37.53
2023-02-14T13:00:04.036Z,31.40
2023-02-14T13:02:43.675Z,36.88
2023-02-14T13:05:22.840Z,37.28
2023-02-14T13:07:56.380Z,38.47
2023-02-14T13:10:54.728Z,36.80
2023-02-14T13:13:30.713Z,28.80
2023-02-14T13:16:08.260Z,35.13
2023-02-14T13:18:46.674Z,32.28
2023-02-14T13:21:18.382Z,37.97
2023-02-14T13:23:47.827Z,39.38
2023-02-14T13:26:24.964Z,35.55
2023-02-14T13:29:28.925Z,35.08
2023-02-14T13:32:01.825Z,28.25
2023-02-14T13:34:36.949Z,29.30
2023-02-14T13:37:10.801Z,36.38
2023-02-14T13:39:44.190Z,60.72
2023-02-14T13:42:13.575Z,58.55
2023-02-14T13:44:49.339Z,57.63
2023-02-14T13:47:23.927Z,44.92
2023-02-14T13:50:02.026Z,35.85
2023-02-14T13:52:43.444Z,27.42
2023-02-14T13:55:24.482Z,26.05
2023-02-14T13:58:07.718Z,28.58
2023-02-14T14:00:39.320Z,28.25
2023-02-14T14:03:12.658Z,31.08
2023-02-14T14:05:44.724Z,31.42
2023-02-14T14:08:21.155Z,36.42
2023-02-14T14:10:51.233Z,30.20
2023-02-14T14:13:54.722Z,36.95
2023-02-14T14:16:27.823Z,43.67
2023-02-14T14:18:56.843Z,51.38
2023-02-14T14:21:25.546Z,36.97
2023-02-14T14:24:30.465Z,37.30
2023-02-14T14:27:14.260Z,43.05
2023-02-14T14:29:57.508Z,44.28
2023-02-14T14:32:36.320Z,43.00
2023-02-14T14:35:08.498Z,41.72
2023-02-14T14:37:45.778Z,34.28
2023-02-14T14:40:30.071Z,34.90
2023-02-14T14:43:18.011Z,36.67
2023-02-14T14:45:48.146Z,39.05
2023-02-14T14:48:40.140Z,44.38
2023-02-14T14:51:15.881Z,39.45
2023-02-14T14:53:47.468Z,31.70
2023-02-14T14:56:22.569Z,37.22
2023-02-14T14:58:50.425Z,40.40
2023-02-14T15:01:37.637Z,37.42
2023-02-14T15:04:12.421Z,39.47
2023-02-14T15:06:41.066Z,38.35
2023-02-14T15:09:30.769Z,41.60
2023-02-14T15:12:21.874Z,44.08
2023-02-14T15:14:54.686Z,35.22
2023-02-14T15:17:26.929Z,34.60
2023-02-14T15:20:05.662Z,35.88
2023-02-14T15:22:52.996Z,33.10
2023-02-14T15:25:28.053Z,36.85
2023-02-14T15:27:55.696Z,34.03
2023-02-14T15:30:33.838Z,42.40
2023-02-14T15:33:06.564Z,37.33
2023-02-14T15:38:06.989Z,38.88
2023-02-14T15:40:35.755Z,40.03
2023-02-14T15:43:36.266Z,37.15
2023-02-14T15:46:29.263Z,37.33
2023-02-14T15:49:01.335Z,35.13
2023-02-14T15:51:31.250Z,45.78
2023-02-14T15:54:02.128Z,36.78
2023-02-14T15:56:49.001Z,37.63
2023-02-14T15:59:21.179Z,43.30
2023-02-14T16:01:52.837Z,45.13
2023-02-14T16:04:26.632Z,41.55
2023-02-14T16:07:22.936Z,44.00
2023-02-14T16:10:12.660Z,50.83
2023-02-14T16:12:42.248Z,46.00
2023-02-14T16:15:21.512Z,41.75
2023-02-14T16:17:49.271Z,71.93
2023-02-14T16:20:40.093Z,41.20
2023-02-14T16:23:18.156Z,40.90
2023-02-14T16:25:46.735Z,58.15
2023-02-14T16:28:14.427Z,45.53
2023-02-14T16:30:43.423Z,72.50
2023-02-14T16:33:19.978Z,44.75
2023-02-14T16:35:49.363Z,41.67
2023-02-14T16:38:19.383Z,36.25
2023-02-14T16:40:49.954Z,81.20
2023-02-14T16:43:19.599Z,50.83
2023-02-14T16:45:48.310Z,45.20
2023-02-14T16:48:16.052Z,84.47
2023-02-14T16:50:44.762Z,64.22
2023-02-14T16:53:25.396Z,78.28
2023-02-14T16:55:54.909Z,37.72
2023-02-14T16:58:27.360Z,41.50
2023-02-14T17:00:54.785Z,40.47
2023-02-14T17:03:22.223Z,37.78
2023-02-14T17:05:50.046Z,67.78
2023-02-14T17:08:17.451Z,43.30
2023-02-14T17:10:47.549Z,74.40
2023-02-14T17:13:22.321Z,86.88
2023-02-14T17:15:50.850Z,89.88
2023-02-14T17:18:21.531Z,43.15
2023-02-14T17:20:49.202Z,39.40
2023-02-14T17:23:16.572Z,64.60
2023-02-14T17:25:44.183Z,64.93
2023-02-14T17:28:11.374Z,42.83
2023-02-14T17:30:39.082Z,66.00
2023-02-14T17:33:06.296Z,77.93
2023-02-14T17:35:40.026Z,45.47
2023-02-14T17:38:07.399Z,39.35
2023-02-14T17:40:35.885Z,40.13
2023-02-14T17:43:03.253Z,40.70
2023-02-14T17:45:31.090Z,53.42
2023-02-14T17:47:58.228Z,43.03
2023-02-14T17:50:25.767Z,40.95
2023-02-14T17:52:57.040Z,47.58
2023-02-14T17:55:24.808Z,49.87
2023-02-14T17:57:52.431Z,54.05
2023-02-14T18:00:21.677Z,52.25
2023-02-14T18:02:49.437Z,58.35
2023-02-14T18:05:17.233Z,44.72
2023-02-14T18:07:44.729Z,43.72
2023-02-14T18:10:12.708Z,57.03
2023-02-14T18:12:40.048Z,50.08
2023-02-14T18:15:07.946Z,49.88
2023-02-14T18:17:35.135Z,45.83
2023-02-14T18:20:03.375Z,53.17
2023-02-14T18:22:31.597Z,47.53
2023-02-14T18:24:59.550Z,45.35
2023-02-14T18:27:26.987Z,48.47
2023-02-14T18:29:54.512Z,42.80
2023-02-14T18:32:21.794Z,42.90
2023-02-14T18:34:51.101Z,47.97
2023-02-14T18:37:19.012Z,50.72
2023-02-14T18:39:46.813Z,45.65
2023-02-14T18:42:14.264Z,46.92
2023-02-14T18:44:41.990Z,40.63
2023-02-14T18:47:09.339Z,48.33
2023-02-14T18:49:36.966Z,47.30
2023-02-14T18:52:05.023Z,45.03
2023-02-14T18:54:32.498Z,43.10
2023-02-14T18:56:59.723Z,59.30
2023-02-14T18:59:27.431Z,42.58
2023-02-14T19:01:54.618Z,39.30
2023-02-14T19:04:22.398Z,43.15
2023-02-14T19:06:49.556Z,57.67
2023-02-14T19:09:19.746Z,47.97
2023-02-14T19:11:47.365Z,38.83
2023-02-14T19:14:14.918Z,41.40
2023-02-14T19:16:53.518Z,40.83
2023-02-14T19:19:22.854Z,45.33
2023-02-14T19:21:50.670Z,45.92
2023-02-14T19:24:19.767Z,47.22
2023-02-14T19:26:47.296Z,47.95
2023-02-14T19:29:20.141Z,43.72
2023-02-14T19:31:49.662Z,45.17
2023-02-14T19:34:20.397Z,49.92
2023-02-14T19:36:49.386Z,39.13
2023-02-14T19:39:17.294Z,38.20
2023-02-14T19:41:45.180Z,45.83
2023-02-14T19:44:14.383Z,41.25
2023-02-14T19:46:43.052Z,42.08
2023-02-14T19:49:17.114Z,42.72
2023-02-14T19:51:45.199Z,40.10
2023-02-14T19:54:14.122Z,50.72
2023-02-14T19:56:43.578Z,43.88
2023-02-14T19:59:13.334Z,42.80
2023-02-14T20:01:42.021Z,41.67
2023-02-14T20:04:13.794Z,38.38
2023-02-14T20:06:42.370Z,38.97
2023-02-14T20:09:10.353Z,34.75
2023-02-14T20:11:51.689Z,37.05
2023-02-14T20:14:22.829Z,39.30
2023-02-14T20:16:51.454Z,41.08
2023-02-14T20:19:20.745Z,40.05
2023-02-14T20:21:50.268Z,37.83
2023-02-14T20:24:24.256Z,37.50
2023-02-14T20:26:53.120Z,95.90
2023-02-14T20:29:23.095Z,116.18
2023-02-14T20:31:53.088Z,108.60
2023-02-14T20:34:21.414Z,43.65
2023-02-14T20:36:52.957Z,39.58
2023-02-14T20:39:22.631Z,49.70
2023-02-14T20:41:50.330Z,45.67
2023-02-14T20:44:22.233Z,43.70
2023-02-14T20:46:51.843Z,49.13
2023-02-14T20:49:21.559Z,48.78
2023-02-14T20:51:50.389Z,47.22
2023-02-14T20:54:24.172Z,44.85
2023-02-14T20:56:52.859Z,75.32
2023-02-14T20:59:26.874Z,92.10
2023-02-14T21:01:58.408Z,83.75
2023-02-14T21:04:26.419Z,72.53
2023-02-14T21:06:53.867Z,60.53
2023-02-14T21:09:21.579Z,55.40
2023-02-14T21:11:50.276Z,46.17
2023-02-14T21:14:17.854Z,50.67
2023-02-14T21:16:45.170Z,49.85
2023-02-14T21:19:12.882Z,54.17
2023-02-14T21:21:40.839Z,56.13
2023-02-14T21:24:10.928Z,54.15
2023-02-14T21:26:38.926Z,64.65
2023-02-14T21:29:06.944Z,66.00
2023-02-14T21:31:34.977Z,52.08
2023-02-14T21:34:04.812Z,63.50
2023-02-14T21:36:37.184Z,53.65
2023-02-14T21:39:06.650Z,59.50
2023-02-14T21:41:34.986Z,58.08
2023-02-14T21:44:03.577Z,63.88
2023-02-14T21:46:33.398Z,59.33
2023-02-14T21:49:21.197Z,59.15
2023-02-14T21:51:49.226Z,66.80
2023-02-14T21:54:17.746Z,75.82
2023-02-14T21:56:45.267Z,62.70
2023-02-14T21:59:13.095Z,62.92
2023-02-14T22:01:42.419Z,67.57
2023-02-14T22:04:12.231Z,50.72
2023-02-14T22:06:41.874Z,56.97
2023-02-14T22:09:11.108Z,72.82
2023-02-14T22:11:38.432Z,124.50
2023-02-14T22:14:06.072Z,82.47
2023-02-14T22:16:33.408Z,129.05
2023-02-14T22:19:00.944Z,87.03
2023-02-14T22:21:28.502Z,56.58
2023-02-14T22:23:56.183Z,58.83
2023-02-14T22:26:26.272Z,59.25
2023-02-14T22:28:57.061Z,167.00
2023-02-14T22:31:25.315Z,63.22
2023-02-14T22:33:53.433Z,64.78
2023-02-14T22:36:21.304Z,124.18
2023-02-14T22:38:48.942Z,168.98
2023-02-14T22:41:18.605Z,136.43
2023-02-14T22:43:46.751Z,62.42
2023-02-14T22:46:19.946Z,56.28
2023-02-14T22:48:48.983Z,58.80
2023-02-14T22:51:23.041Z,152.57
2023-02-14T22:53:52.312Z,91.00
2023-02-14T22:56:23.728Z,65.18
2023-02-14T22:59:02.022Z,74.95
2023-02-14T23:01:29.429Z,59.92
2023-02-14T23:03:58.530Z,67.88
2023-02-14T23:06:27.448Z,62.72
2023-02-14T23:08:55.880Z,97.55
2023-02-14T23:11:29.230Z,96.20
2023-02-14T23:14:16.129Z,76.63
2023-02-14T23:17:03.169Z,68.53
2023-02-14T23:19:51.653Z,63.67
2023-02-14T23:22:22.878Z,60.25
2023-02-14T23:24:52.369Z,70.23
2023-02-14T23:27:22.683Z,63.05
2023-02-14T23:29:50.230Z,73.45
2023-02-14T23:32:17.617Z,58.50
2023-02-14T23:34:45.523Z,59.75
2023-02-14T23:37:13.911Z,61.72
2023-02-14T23:39:42.115Z,62.80
2023-02-14T23:42:14.776Z,61.85
2023-02-14T23:44:43.701Z,63.60
2023-02-14T23:47:11.852Z,72.82
2023-02-14T23:49:40.755Z,61.55
2023-02-14T23:52:10.512Z,63.08
2023-02-14T23:54:38.552Z,64.05
2023-02-14T23:57:07.402Z,63.85
2023-02-14T23:59:36.502Z,57.70
